Time;durP1;ratioP1;P1;durP2;ratioP2;P2;SDS_P1;SDS_P2;PMS_P1;PMS_P2;Temp;Humidity;BMP_temperature;BMP_pressure;BME280_temperature;BME280_humidity;BME280_pressure;Samples;Min_cycle;Max_cycle;Signal;HPM_P1;HPM_P2
2023/12/06 00:02:23;;;;;;;31.73;21.37;;;0.80;99.90;;;;;;5022203;28;20201;-66
2023/12/06 00:04:53;;;;;;;29.57;20.37;;;0.80;99.90;;;;;;5019515;28;20224;-65
2023/12/06 00:07:20;;;;;;;29.83;21.00;;;0.80;99.90;;;;;;5027844;28;20211;-66
2023/12/06 00:09:47;;;;;;;31.70;22.17;;;0.80;99.90;;;;;;5028893;28;20223;-65
2023/12/06 00:12:15;;;;;;;28.63;20.23;;;0.80;99.90;;;;;;5028126;28;20291;-65
2023/12/06 00:14:42;;;;;;;33.30;21.30;;;0.80;99.90;;;;;;5028557;28;20697;-66
2023/12/06 00:17:09;;;;;;;31.30;20.90;;;0.80;99.90;;;;;;5028434;28;20209;-65
2023/12/06 00:19:35;;;;;;;29.13;20.57;;;0.80;99.90;;;;;;5028507;28;20213;-65
2023/12/06 00:22:02;;;;;;;30.07;21.53;;;0.80;99.90;;;;;;5028344;28;20218;-65
2023/12/06 00:24:29;;;;;;;31.17;20.93;;;0.80;99.90;;;;;;5025783;28;20232;-66
2023/12/06 00:26:56;;;;;;;31.27;21.53;;;0.80;99.90;;;;;;5008773;28;20241;-65
2023/12/06 00:29:24;;;;;;;31.27;20.57;;;0.80;99.90;;;;;;5018686;28;20232;-66
2023/12/06 00:31:51;;;;;;;31.30;22.10;;;0.80;99.90;;;;;;5025642;28;20219;-66
2023/12/06 00:34:18;;;;;;;31.63;20.73;;;0.80;99.90;;;;;;5026780;28;20299;-66
2023/12/06 00:36:45;;;;;;;29.80;20.83;;;0.80;99.90;;;;;;5028273;28;20663;-65
2023/12/06 00:39:13;;;;;;;29.63;21.33;;;0.80;99.90;;;;;;5028240;28;20261;-65
2023/12/06 00:41:40;;;;;;;32.13;21.07;;;0.80;99.90;;;;;;5020626;28;20205;-65
2023/12/06 00:44:07;;;;;;;32.33;21.40;;;0.80;99.90;;;;;;5008347;28;20292;-65
2023/12/06 00:46:36;;;;;;;34.63;21.80;;;0.80;99.90;;;;;;5008532;28;20206;-65
2023/12/06 00:49:04;;;;;;;28.30;19.83;;;0.90;99.90;;;;;;5007600;28;20297;-65
2023/12/06 00:51:30;;;;;;;31.83;21.17;;;0.80;99.90;;;;;;5008078;28;20237;-65
2023/12/06 00:53:57;;;;;;;31.67;20.57;;;0.90;99.90;;;;;;5007587;28;20245;-65
2023/12/06 00:56:24;;;;;;;29.13;20.63;;;0.90;99.90;;;;;;5015790;28;20848;-65
2023/12/06 00:58:51;;;;;;;31.13;20.80;;;0.90;99.90;;;;;;5007911;28;20211;-66
2023/12/06 01:01:18;;;;;;;31.97;22.00;;;0.90;99.90;;;;;;5007704;28;20338;-65
2023/12/06 01:03:46;;;;;;;31.00;21.47;;;0.90;99.90;;;;;;5007962;28;20205;-65
2023/12/06 01:06:13;;;;;;;30.83;20.60;;;0.90;99.90;;;;;;5015444;28;20241;-65
2023/12/06 01:08:40;;;;;;;31.20;21.27;;;0.90;99.90;;;;;;5027734;28;20208;-65
2023/12/06 01:11:20;;;;;;;31.20;21.67;;;0.90;99.90;;;;;;5026856;28;20707;-65
2023/12/06 01:13:47;;;;;;;32.40;21.53;;;0.90;99.90;;;;;;5027608;28;20222;-65
2023/12/06 01:16:14;;;;;;;29.90;20.60;;;0.90;99.90;;;;;;5027103;28;20227;-66
2023/12/06 01:18:41;;;;;;;30.87;21.83;;;0.90;99.90;;;;;;5027302;28;20209;-66
2023/12/06 01:21:09;;;;;;;31.57;22.40;;;0.90;99.90;;;;;;5020558;28;20289;-66
2023/12/06 01:23:36;;;;;;;32.83;22.33;;;0.90;99.90;;;;;;5007706;28;20308;-66
2023/12/06 01:26:03;;;;;;;30.27;20.90;;;0.90;99.90;;;;;;5022844;28;20243;-66
2023/12/06 01:28:30;;;;;;;33.83;21.77;;;0.90;99.90;;;;;;5027352;28;20211;-66
2023/12/06 01:30:56;;;;;;;34.17;21.30;;;0.90;99.90;;;;;;5013968;28;20296;-66
2023/12/06 01:33:23;;;;;;;32.00;21.23;;;0.90;99.90;;;;;;5007440;28;20213;-66
2023/12/06 01:35:50;;;;;;;30.77;22.20;;;0.90;99.90;;;;;;5007457;28;20304;-66
2023/12/06 01:38:19;;;;;;;30.90;21.53;;;0.90;99.90;;;;;;5017513;28;20236;-66
2023/12/06 01:40:46;;;;;;;31.67;21.30;;;0.90;99.90;;;;;;5027076;28;20292;-66
2023/12/06 01:43:12;;;;;;;28.87;21.33;;;0.90;99.90;;;;;;5016059;28;20205;-66
2023/12/06 01:45:39;;;;;;;31.53;20.83;;;0.90;99.90;;;;;;5015595;28;20771;-66
2023/12/06 01:48:08;;;;;;;30.77;21.27;;;0.90;99.90;;;;;;5006943;28;20311;-66
2023/12/06 01:50:38;;;;;;;31.67;21.80;;;0.90;99.90;;;;;;5007110;28;20949;-66
2023/12/06 01:53:05;;;;;;;30.50;21.40;;;0.90;99.90;;;;;;5006841;28;20273;-66
2023/12/06 01:55:34;;;;;;;30.13;21.03;;;0.90;99.90;;;;;;5018823;28;20295;-66
2023/12/06 01:58:01;;;;;;;31.27;20.93;;;0.90;99.90;;;;;;5027006;28;20211;-66
2023/12/06 02:00:28;;;;;;;29.80;20.97;;;0.90;99.90;;;;;;5027198;28;20216;-66
2023/12/06 02:02:55;;;;;;;30.60;20.70;;;0.90;99.90;;;;;;5020375;28;20201;-66
2023/12/06 02:05:22;;;;;;;32.67;22.27;;;1.00;99.90;;;;;;5021782;28;20236;-66
2023/12/06 02:07:51;;;;;;;33.07;22.23;;;0.90;99.90;;;;;;5021787;28;20205;-66
2023/12/06 02:10:17;;;;;;;30.10;20.53;;;1.00;99.90;;;;;;5014250;28;20200;-65
2023/12/06 02:12:45;;;;;;;35.20;22.43;;;0.90;99.90;;;;;;5026477;28;20920;-66
2023/12/06 02:15:12;;;;;;;33.17;21.77;;;1.00;99.90;;;;;;5026647;28;20201;-66
2023/12/06 02:17:40;;;;;;;32.23;22.53;;;0.90;99.90;;;;;;5026850;28;20240;-66
2023/12/06 02:20:09;;;;;;;32.57;20.40;;;0.90;99.90;;;;;;5026532;28;20214;-66
2023/12/06 02:22:36;;;;;;;30.63;21.00;;;1.00;99.90;;;;;;5026681;28;20266;-65
2023/12/06 02:25:04;;;;;;;33.83;20.63;;;1.00;99.90;;;;;;5019168;28;20233;-65
2023/12/06 02:27:33;;;;;;;32.37;21.37;;;1.00;99.90;;;;;;5007240;28;20308;-65
2023/12/06 02:30:00;;;;;;;31.17;21.00;;;1.00;99.90;;;;;;5007365;28;20229;-66
2023/12/06 02:32:27;;;;;;;32.40;21.30;;;1.00;99.90;;;;;;5007131;28;20237;-65
2023/12/06 02:34:56;;;;;;;33.70;21.73;;;1.00;99.90;;;;;;5006424;28;20228;-65
2023/12/06 02:37:24;;;;;;;31.53;21.77;;;1.00;99.90;;;;;;5006830;28;20750;-66
2023/12/06 02:39:52;;;;;;;33.10;21.90;;;1.00;99.90;;;;;;5026640;28;20213;-66
2023/12/06 02:42:19;;;;;;;33.30;21.03;;;1.00;99.90;;;;;;5018903;28;20205;-65
2023/12/06 02:44:48;;;;;;;31.23;21.87;;;1.00;99.90;;;;;;5006612;28;20248;-65
2023/12/06 02:47:15;;;;;;;34.03;21.93;;;1.00;99.90;;;;;;5006497;28;20271;-65
2023/12/06 02:49:42;;;;;;;33.47;20.97;;;1.00;99.90;;;;;;5006506;28;20209;-66
2023/12/06 02:52:09;;;;;;;30.80;20.40;;;1.00;99.90;;;;;;5014459;28;20707;-65
2023/12/06 02:54:36;;;;;;;29.80;21.17;;;1.00;99.90;;;;;;5022828;28;20209;-65
2023/12/06 02:57:03;;;;;;;33.47;21.33;;;1.00;99.90;;;;;;5010135;28;20300;-66
2023/12/06 02:59:29;;;;;;;28.33;20.43;;;1.00;99.90;;;;;;5010194;28;20747;-65
2023/12/06 03:01:58;;;;;;;30.73;20.87;;;1.00;99.90;;;;;;5009904;28;20205;-65
2023/12/06 03:04:24;;;;;;;33.03;21.63;;;1.00;99.90;;;;;;5010035;28;20289;-65
2023/12/06 03:06:51;;;;;;;32.13;21.33;;;1.00;99.90;;;;;;5012488;28;20240;-65
2023/12/06 03:09:18;;;;;;;32.30;20.50;;;1.00;99.90;;;;;;5030263;28;20304;-65
2023/12/06 03:11:45;;;;;;;30.30;20.60;;;1.00;99.90;;;;;;5029486;28;20229;-65
2023/12/06 03:14:12;;;;;;;29.47;20.23;;;1.00;99.90;;;;;;5029799;28;20356;-65
2023/12/06 03:16:39;;;;;;;30.83;20.73;;;1.00;99.90;;;;;;5029419;28;20307;-65
2023/12/06 03:19:07;;;;;;;33.27;22.33;;;1.00;99.90;;;;;;5026446;28;20296;-65
2023/12/06 03:21:34;;;;;;;29.07;19.63;;;1.00;99.90;;;;;;5019028;28;20288;-65
2023/12/06 03:24:01;;;;;;;32.83;19.97;;;1.00;99.90;;;;;;5024641;28;20296;-65
2023/12/06 03:26:28;;;;;;;29.20;19.47;;;1.00;99.90;;;;;;5026214;28;20335;-65
2023/12/06 03:28:54;;;;;;;29.73;20.20;;;1.00;99.90;;;;;;5018669;28;20295;-65
2023/12/06 03:31:21;;;;;;;30.17;20.63;;;1.10;99.90;;;;;;5015840;28;20292;-65
2023/12/06 03:33:48;;;;;;;29.63;20.40;;;1.10;99.90;;;;;;5015205;28;20301;-65
2023/12/06 03:36:16;;;;;;;30.73;21.00;;;1.10;99.90;;;;;;5015558;28;20222;-65
2023/12/06 03:38:43;;;;;;;32.33;20.93;;;1.10;99.90;;;;;;5015028;28;20288;-65
2023/12/06 03:41:11;;;;;;;28.67;19.63;;;1.10;99.90;;;;;;5017348;28;20279;-65
2023/12/06 03:43:38;;;;;;;30.40;20.07;;;1.10;99.90;;;;;;5018132;28;20316;-65
2023/12/06 03:46:05;;;;;;;32.50;21.20;;;1.10;99.90;;;;;;5017250;28;20236;-66
2023/12/06 03:48:32;;;;;;;29.20;19.87;;;1.10;99.90;;;;;;5025648;28;20204;-65
2023/12/06 03:50:59;;;;;;;29.83;20.57;;;1.10;99.90;;;;;;5018860;28;20205;-65
2023/12/06 03:53:27;;;;;;;31.90;21.80;;;1.00;99.90;;;;;;5021216;28;20336;-65
2023/12/06 03:55:54;;;;;;;31.93;21.10;;;1.10;99.90;;;;;;5012789;28;20214;-65
2023/12/06 03:58:22;;;;;;;27.87;18.93;;;1.10;99.90;;;;;;5027249;28;20258;-62
2023/12/06 04:00:49;;;;;;;29.00;19.77;;;1.10;99.90;;;;;;5027179;28;20730;-62
2023/12/06 04:03:16;;;;;;;30.53;19.80;;;1.10;99.90;;;;;;5027251;28;20211;-62
2023/12/06 04:05:43;;;;;;;32.43;20.70;;;1.10;99.90;;;;;;5016413;28;20221;-62
2023/12/06 04:08:10;;;;;;;30.33;19.43;;;1.10;99.90;;;;;;5007746;28;20206;-62
2023/12/06 04:10:38;;;;;;;29.77;20.90;;;1.10;99.90;;;;;;5007124;28;20312;-65
2023/12/06 04:13:05;;;;;;;30.40;20.77;;;1.10;99.90;;;;;;5007672;28;20320;-65
2023/12/06 04:15:32;;;;;;;31.40;20.60;;;1.10;99.90;;;;;;5008555;28;20308;-65
2023/12/06 04:17:59;;;;;;;30.27;20.37;;;1.10;99.90;;;;;;5008364;28;20564;-64
2023/12/06 04:20:25;;;;;;;31.80;20.77;;;1.10;99.90;;;;;;5008900;28;20214;-65
2023/12/06 04:22:52;;;;;;;31.10;20.17;;;1.10;99.90;;;;;;5019400;28;20735;-65
2023/12/06 04:25:20;;;;;;;32.67;20.73;;;1.10;99.90;;;;;;5028721;28;20292;-65
2023/12/06 04:27:48;;;;;;;35.00;21.27;;;1.10;99.90;;;;;;5028507;28;20205;-65
2023/12/06 04:30:16;;;;;;;29.90;20.47;;;1.10;99.90;;;;;;5028313;28;20327;-65
2023/12/06 04:32:43;;;;;;;32.37;21.00;;;1.20;99.90;;;;;;5028227;28;20960;-65
2023/12/06 04:35:12;;;;;;;30.13;20.20;;;1.10;99.90;;;;;;5027951;28;20506;-65
2023/12/06 04:37:39;;;;;;;32.10;19.83;;;1.10;99.90;;;;;;5028327;28;20287;-65
2023/12/06 04:40:07;;;;;;;29.80;20.17;;;1.20;99.90;;;;;;5028178;28;20292;-65
2023/12/06 04:42:34;;;;;;;30.53;20.70;;;1.20;99.90;;;;;;5027798;28;20725;-65
2023/12/06 04:45:02;;;;;;;33.60;21.13;;;1.20;99.90;;;;;;5028071;28;20307;-65
2023/12/06 04:47:29;;;;;;;35.73;22.17;;;1.10;99.90;;;;;;5027997;28;20251;-65
2023/12/06 04:49:56;;;;;;;31.53;19.97;;;1.10;99.90;;;;;;5027458;28;20786;-65
2023/12/06 04:52:24;;;;;;;30.37;20.40;;;1.20;99.90;;;;;;5027432;28;20359;-65
2023/12/06 04:54:51;;;;;;;28.60;19.73;;;1.20;99.90;;;;;;5028112;28;20212;-65
2023/12/06 04:57:18;;;;;;;31.77;21.10;;;1.20;99.90;;;;;;5027242;28;20304;-65
2023/12/06 04:59:45;;;;;;;32.70;20.87;;;1.20;99.90;;;;;;5027634;28;20219;-65
2023/12/06 05:02:13;;;;;;;36.47;20.23;;;1.20;99.90;;;;;;5027701;28;20211;-65
2023/12/06 05:04:40;;;;;;;36.80;22.13;;;1.20;99.90;;;;;;5027456;28;20209;-65
2023/12/06 05:07:07;;;;;;;32.13;21.23;;;1.20;99.90;;;;;;5027404;28;20328;-65
2023/12/06 05:09:35;;;;;;;32.73;20.47;;;1.20;99.90;;;;;;5027735;28;20303;-65
2023/12/06 05:12:02;;;;;;;34.50;21.53;;;1.20;99.90;;;;;;5027115;28;20663;-65
2023/12/06 05:14:30;;;;;;;32.53;20.33;;;1.20;99.90;;;;;;5027551;28;20259;-65
2023/12/06 05:16:57;;;;;;;28.90;20.67;;;1.20;99.90;;;;;;5027552;28;20286;-64
2023/12/06 05:19:26;;;;;;;32.13;20.57;;;1.20;99.90;;;;;;5026865;28;20288;-65
2023/12/06 05:21:53;;;;;;;32.17;21.33;;;1.20;99.90;;;;;;5027245;28;20208;-65
2023/12/06 05:24:20;;;;;;;33.70;21.10;;;1.20;99.90;;;;;;5027624;28;20670;-65
2023/12/06 05:26:47;;;;;;;37.63;21.57;;;1.20;99.90;;;;;;5027335;28;20233;-65
2023/12/06 05:29:14;;;;;;;34.17;21.53;;;1.20;99.90;;;;;;5026978;28;20907;-65
2023/12/06 05:31:41;;;;;;;32.67;21.47;;;1.20;99.90;;;;;;5027425;28;20209;-65
2023/12/06 05:34:09;;;;;;;34.40;21.37;;;1.20;99.90;;;;;;5026993;28;20319;-65
2023/12/06 05:36:37;;;;;;;33.97;22.73;;;1.20;99.90;;;;;;5027319;28;20209;-65
2023/12/06 05:39:07;;;;;;;33.23;21.63;;;1.20;99.90;;;;;;5027248;28;20857;-65
2023/12/06 05:41:34;;;;;;;33.67;22.13;;;1.20;99.90;;;;;;5026849;28;20211;-65
2023/12/06 05:44:00;;;;;;;35.40;22.50;;;1.20;99.90;;;;;;5026856;28;20300;-65
2023/12/06 05:46:27;;;;;;;33.20;22.03;;;1.20;99.90;;;;;;5026805;28;20308;-65
2023/12/06 05:48:54;;;;;;;33.90;22.47;;;1.20;99.90;;;;;;5026412;28;20304;-65
2023/12/06 05:51:21;;;;;;;37.53;22.57;;;1.20;99.90;;;;;;5027091;28;20237;-65
2023/12/06 05:53:49;;;;;;;38.77;22.77;;;1.20;99.90;;;;;;5011464;28;20328;-65
2023/12/06 05:56:16;;;;;;;36.17;23.13;;;1.20;99.90;;;;;;5023121;28;20296;-65
2023/12/06 05:58:43;;;;;;;34.63;22.67;;;1.20;99.90;;;;;;5026445;28;20303;-65
2023/12/06 06:01:10;;;;;;;35.53;21.53;;;1.20;99.90;;;;;;5026736;28;20299;-65
2023/12/06 06:03:38;;;;;;;33.37;21.80;;;1.20;99.90;;;;;;5026571;28;20303;-65
2023/12/06 06:06:06;;;;;;;33.70;21.73;;;1.20;99.90;;;;;;5026337;28;20243;-64
2023/12/06 06:08:34;;;;;;;34.37;21.30;;;1.20;99.90;;;;;;5026807;28;20577;-65
2023/12/06 06:11:04;;;;;;;32.70;21.47;;;1.30;99.90;;;;;;5026710;28;20212;-65
2023/12/06 06:13:31;;;;;;;34.50;22.40;;;1.20;99.90;;;;;;5026729;28;20262;-65
2023/12/06 06:15:58;;;;;;;33.80;22.40;;;1.20;99.90;;;;;;5026324;28;20766;-65
2023/12/06 06:18:27;;;;;;;35.33;22.60;;;1.20;99.90;;;;;;5026670;28;20219;-65
2023/12/06 06:20:54;;;;;;;34.83;22.90;;;1.20;99.90;;;;;;5026198;28;20209;-65
2023/12/06 06:23:21;;;;;;;33.80;20.93;;;1.30;99.90;;;;;;5026620;28;20209;-64
2023/12/06 06:25:48;;;;;;;34.70;22.20;;;1.30;99.90;;;;;;5013004;28;20245;-65
2023/12/06 06:28:16;;;;;;;34.10;22.00;;;1.30;99.90;;;;;;5006535;28;20255;-65
2023/12/06 06:30:43;;;;;;;33.60;21.97;;;1.30;99.90;;;;;;5008539;28;20675;-65
2023/12/06 06:33:10;;;;;;;38.00;22.43;;;1.30;99.90;;;;;;5010743;28;20220;-65
2023/12/06 06:35:37;;;;;;;34.27;22.17;;;1.30;99.90;;;;;;5010557;28;20300;-65
2023/12/06 06:38:04;;;;;;;34.37;22.37;;;1.30;99.90;;;;;;5010362;28;20776;-65
2023/12/06 06:40:31;;;;;;;36.80;22.67;;;1.30;99.90;;;;;;5010760;28;20213;-65
2023/12/06 06:42:58;;;;;;;35.87;22.17;;;1.30;99.90;;;;;;5010350;28;20684;-65
2023/12/06 06:45:26;;;;;;;33.27;21.83;;;1.30;99.90;;;;;;5010792;28;20304;-65
2023/12/06 06:47:54;;;;;;;36.07;22.27;;;1.30;99.90;;;;;;5010487;28;20236;-65
2023/12/06 06:50:21;;;;;;;35.20;21.90;;;1.30;99.90;;;;;;5010651;28;20217;-65
2023/12/06 06:52:48;;;;;;;32.60;22.00;;;1.30;99.90;;;;;;5010453;28;20251;-65
2023/12/06 06:55:15;;;;;;;36.27;23.00;;;1.30;99.90;;;;;;5019227;28;20213;-65
2023/12/06 06:57:42;;;;;;;36.33;22.80;;;1.30;99.90;;;;;;5029773;28;20271;-65
2023/12/06 07:00:12;;;;;;;35.63;22.63;;;1.30;99.90;;;;;;5030025;28;20227;-65
2023/12/06 07:02:41;;;;;;;35.37;23.13;;;1.30;99.90;;;;;;5029886;28;20662;-65
2023/12/06 07:05:12;;;;;;;35.53;23.00;;;1.30;99.90;;;;;;5030012;28;20387;-65
2023/12/06 07:07:39;;;;;;;33.80;21.73;;;1.30;99.90;;;;;;5029805;28;20220;-65
2023/12/06 07:10:08;;;;;;;35.57;23.43;;;1.30;99.90;;;;;;5030081;28;20251;-65
2023/12/06 07:12:35;;;;;;;36.80;23.67;;;1.30;99.90;;;;;;5029444;28;20221;-65
2023/12/06 07:15:02;;;;;;;41.37;25.33;;;1.20;99.90;;;;;;5029853;28;20324;-65
2023/12/06 07:17:29;;;;;;;37.43;22.43;;;1.30;99.90;;;;;;5029743;28;20204;-65
2023/12/06 07:19:58;;;;;;;37.87;23.07;;;1.30;99.90;;;;;;5029218;28;20223;-65
2023/12/06 07:22:25;;;;;;;34.97;23.27;;;1.30;99.90;;;;;;5029721;28;20222;-65
2023/12/06 07:24:52;;;;;;;39.20;24.07;;;1.30;99.90;;;;;;5029488;28;20217;-65
2023/12/06 07:27:19;;;;;;;36.60;23.20;;;1.30;99.90;;;;;;5029639;28;20235;-65
2023/12/06 07:29:46;;;;;;;39.90;24.60;;;1.20;99.90;;;;;;5029644;28;20574;-65
2023/12/06 07:32:13;;;;;;;35.70;23.20;;;1.30;99.90;;;;;;5029044;28;20249;-65
2023/12/06 07:34:40;;;;;;;36.23;23.87;;;1.30;99.90;;;;;;5029450;28;20323;-65
2023/12/06 07:37:08;;;;;;;38.80;23.70;;;1.20;99.90;;;;;;5029315;28;20235;-65
2023/12/06 07:39:35;;;;;;;36.10;23.23;;;1.20;99.90;;;;;;5029693;28;20232;-65
2023/12/06 07:42:02;;;;;;;37.70;23.23;;;1.30;99.90;;;;;;5028580;28;20295;-65
2023/12/06 07:44:29;;;;;;;37.57;23.10;;;1.30;99.90;;;;;;5028495;28;20208;-65
2023/12/06 07:46:56;;;;;;;42.23;25.23;;;1.30;99.90;;;;;;5009204;28;20337;-64
2023/12/06 07:49:23;;;;;;;40.77;25.60;;;1.30;99.90;;;;;;5009007;28;20316;-65
2023/12/06 07:51:49;;;;;;;37.87;24.47;;;1.30;99.90;;;;;;5009128;28;20360;-65
2023/12/06 07:54:19;;;;;;;37.37;23.97;;;1.30;99.90;;;;;;5009385;28;20241;-65
2023/12/06 07:56:46;;;;;;;39.17;24.20;;;1.30;99.90;;;;;;5028531;28;20201;-65
2023/12/06 07:59:13;;;;;;;37.10;23.77;;;1.30;99.90;;;;;;5028824;28;20223;-65
2023/12/06 08:01:40;;;;;;;39.47;24.13;;;1.20;99.90;;;;;;5028980;28;20240;-65
2023/12/06 08:04:07;;;;;;;40.07;24.10;;;1.30;99.90;;;;;;5028554;28;20294;-65
2023/12/06 08:06:34;;;;;;;43.00;25.20;;;1.30;99.90;;;;;;5028857;28;20323;-65
2023/12/06 08:09:01;;;;;;;38.27;24.20;;;1.30;99.90;;;;;;5028738;28;20205;-65
2023/12/06 08:11:29;;;;;;;37.37;23.57;;;1.30;99.90;;;;;;5028664;28;20239;-65
2023/12/06 08:13:56;;;;;;;37.70;23.77;;;1.30;99.90;;;;;;5028330;28;20252;-65
2023/12/06 08:16:22;;;;;;;39.83;23.80;;;1.30;99.90;;;;;;5028660;28;20239;-65
2023/12/06 08:18:49;;;;;;;34.87;23.17;;;1.30;99.90;;;;;;5028611;28;20488;-65
2023/12/06 08:21:16;;;;;;;37.90;24.10;;;1.30;99.90;;;;;;5028187;28;20232;-65
2023/12/06 08:23:43;;;;;;;36.47;24.17;;;1.30;99.90;;;;;;5028554;28;20484;-64
2023/12/06 08:26:10;;;;;;;36.73;24.10;;;1.30;99.90;;;;;;5028245;28;20215;-65
2023/12/06 08:28:39;;;;;;;37.90;24.03;;;1.30;99.90;;;;;;5028373;28;20239;-65
2023/12/06 08:31:08;;;;;;;40.27;25.03;;;1.30;99.90;;;;;;5028351;28;20290;-64
2023/12/06 08:33:35;;;;;;;38.17;23.93;;;1.30;99.90;;;;;;5028141;28;20209;-64
2023/12/06 08:36:02;;;;;;;39.20;24.17;;;1.30;99.90;;;;;;5028015;28;20209;-65
2023/12/06 08:38:29;;;;;;;39.13;24.20;;;1.30;99.90;;;;;;5027995;28;20961;-65
2023/12/06 08:40:56;;;;;;;37.50;24.47;;;1.30;99.90;;;;;;5027565;28;20308;-65
2023/12/06 08:43:23;;;;;;;40.77;23.60;;;1.40;99.90;;;;;;5028299;28;20211;-65
2023/12/06 08:45:51;;;;;;;37.57;23.20;;;1.40;99.90;;;;;;5028195;28;20299;-65
2023/12/06 08:48:18;;;;;;;35.77;23.90;;;1.40;99.90;;;;;;5027524;28;20251;-65
2023/12/06 08:50:47;;;;;;;37.53;23.17;;;1.40;99.90;;;;;;5027678;28;20671;-65
2023/12/06 08:53:13;;;;;;;43.00;24.77;;;1.40;99.90;;;;;;5026861;28;20247;-65
2023/12/06 08:55:41;;;;;;;38.67;23.93;;;1.40;99.90;;;;;;5027905;28;20310;-65
2023/12/06 08:58:08;;;;;;;39.20;24.43;;;1.40;99.90;;;;;;5027755;28;20213;-65
2023/12/06 09:00:35;;;;;;;37.93;23.70;;;1.40;99.90;;;;;;5027632;28;20728;-65
2023/12/06 09:03:04;;;;;;;35.77;23.50;;;1.40;99.90;;;;;;5027065;28;20283;-65
2023/12/06 09:05:31;;;;;;;38.00;23.23;;;1.40;99.90;;;;;;5027522;28;20300;-65
2023/12/06 09:07:58;;;;;;;37.20;23.93;;;1.50;99.90;;;;;;5027353;28;20323;-65
2023/12/06 09:10:25;;;;;;;37.13;23.20;;;1.50;99.90;;;;;;5027953;28;20208;-65
2023/12/06 09:12:52;;;;;;;35.03;23.63;;;1.50;99.90;;;;;;5027456;28;20701;-65
2023/12/06 09:15:19;;;;;;;38.23;23.53;;;1.50;99.90;;;;;;5027920;28;20266;-65
2023/12/06 09:17:46;;;;;;;37.70;23.60;;;1.50;99.90;;;;;;5027680;28;20296;-64
2023/12/06 09:20:15;;;;;;;38.23;24.17;;;1.50;99.90;;;;;;5027596;28;20219;-65
2023/12/06 09:22:42;;;;;;;38.77;24.40;;;1.50;99.90;;;;;;5027551;28;20205;-64
2023/12/06 09:25:09;;;;;;;39.40;24.17;;;1.50;99.90;;;;;;5027273;28;20713;-65
2023/12/06 09:27:36;;;;;;;33.97;22.63;;;1.50;99.90;;;;;;5027222;28;20675;-65
2023/12/06 09:30:04;;;;;;;39.33;23.93;;;1.50;99.90;;;;;;5027233;28;20213;-65
2023/12/06 09:32:31;;;;;;;39.57;24.60;;;1.50;99.90;;;;;;5027479;28;20215;-65
2023/12/06 09:34:58;;;;;;;37.83;23.33;;;1.50;99.90;;;;;;5027078;28;20299;-65
2023/12/06 09:37:26;;;;;;;37.83;22.50;;;1.60;99.90;;;;;;5026292;28;20304;-65
2023/12/06 09:39:54;;;;;;;38.47;23.20;;;1.60;99.90;;;;;;5027370;28;20251;-65
2023/12/06 09:42:22;;;;;;;37.17;23.07;;;1.50;99.90;;;;;;5026895;28;20209;-65
2023/12/06 09:44:51;;;;;;;35.83;22.63;;;1.50;99.90;;;;;;5027321;28;20239;-65
2023/12/06 09:47:18;;;;;;;35.43;23.93;;;1.60;99.90;;;;;;5026872;28;20231;-65
2023/12/06 09:49:45;;;;;;;37.30;24.40;;;1.60;99.90;;;;;;5026808;28;20259;-65
2023/12/06 09:52:18;;;;;;;37.57;23.77;;;1.50;99.90;;;;;;5026388;28;20630;-65
2023/12/06 09:54:49;;;;;;;37.37;23.17;;;1.50;99.90;;;;;;5027085;28;20215;-65
2023/12/06 09:57:17;;;;;;;36.23;22.33;;;1.60;99.90;;;;;;5026336;28;20287;-65
2023/12/06 09:59:44;;;;;;;39.23;22.73;;;1.60;99.90;;;;;;5027077;28;20243;-65
2023/12/06 10:02:11;;;;;;;35.83;23.23;;;1.60;99.90;;;;;;5026865;28;20296;-65
2023/12/06 10:04:37;;;;;;;37.90;22.63;;;1.60;99.90;;;;;;5026679;28;20295;-65
2023/12/06 10:07:05;;;;;;;38.47;23.63;;;1.60;99.90;;;;;;5026497;28;20749;-65
2023/12/06 10:09:31;;;;;;;37.83;23.23;;;1.60;99.90;;;;;;5027045;28;20315;-65
2023/12/06 10:12:09;;;;;;;38.43;23.83;;;1.60;99.90;;;;;;5026425;28;20305;-65
2023/12/06 10:14:36;;;;;;;36.57;23.67;;;1.60;99.90;;;;;;5027069;28;20292;-64
2023/12/06 10:17:03;;;;;;;37.23;22.47;;;1.60;99.90;;;;;;5026618;28;20209;-65
2023/12/06 10:19:31;;;;;;;37.60;22.53;;;1.60;99.90;;;;;;5026383;28;20359;-65
2023/12/06 10:22:01;;;;;;;34.53;23.00;;;1.70;99.90;;;;;;5026140;28;20205;-65
2023/12/06 10:24:28;;;;;;;34.50;22.53;;;1.70;99.90;;;;;;5026759;28;20303;-65
2023/12/06 10:27:02;;;;;;;36.77;23.73;;;1.70;99.90;;;;;;5026536;28;20300;-65
2023/12/06 10:29:31;;;;;;;36.33;22.90;;;1.70;99.90;;;;;;5026781;28;20200;-64
2023/12/06 10:31:59;;;;;;;34.17;22.13;;;1.70;99.90;;;;;;5026714;28;20300;-65
2023/12/06 10:34:28;;;;;;;35.17;21.63;;;1.70;99.90;;;;;;5026009;28;20296;-64
2023/12/06 10:36:56;;;;;;;36.47;23.27;;;1.70;99.90;;;;;;5026449;28;20208;-65
2023/12/06 10:39:26;;;;;;;36.13;22.27;;;1.70;99.90;;;;;;5026797;28;20290;-64
2023/12/06 10:41:56;;;;;;;37.27;22.50;;;1.70;99.90;;;;;;5026428;28;20764;-64
2023/12/06 10:44:23;;;;;;;31.57;22.40;;;1.70;99.90;;;;;;5026394;28;20890;-64
2023/12/06 10:46:52;;;;;;;33.33;21.60;;;1.70;99.90;;;;;;5026455;28;20297;-65
2023/12/06 10:49:20;;;;;;;40.30;23.07;;;1.70;99.90;;;;;;5026331;28;20593;-64
2023/12/06 10:51:48;;;;;;;34.77;22.07;;;1.70;99.90;;;;;;5026463;28;20260;-65
2023/12/06 10:54:16;;;;;;;37.83;22.57;;;1.70;99.90;;;;;;5025897;28;20342;-65
2023/12/06 10:56:44;;;;;;;35.83;22.47;;;1.70;99.90;;;;;;5025705;28;20284;-65
2023/12/06 10:59:13;;;;;;;36.47;21.93;;;1.70;99.90;;;;;;5026019;28;20835;-65
2023/12/06 11:01:40;;;;;;;37.03;22.30;;;1.70;99.90;;;;;;5026352;28;20342;-65
2023/12/06 11:04:10;;;;;;;34.33;22.73;;;1.70;99.90;;;;;;5025696;28;20209;-64
2023/12/06 11:06:49;;;;;;;37.10;22.97;;;1.70;99.90;;;;;;5025855;28;20291;-65
2023/12/06 11:09:29;;;;;;;35.10;22.73;;;1.70;99.90;;;;;;5026186;28;20256;-65
2023/12/06 11:12:05;;;;;;;35.03;22.97;;;1.70;99.90;;;;;;5025798;28;20229;-65
2023/12/06 11:14:55;;;;;;;34.03;21.37;;;1.70;99.90;;;;;;5025974;28;20243;-65
2023/12/06 11:17:36;;;;;;;33.80;21.77;;;1.70;99.90;;;;;;5026412;28;20296;-65
2023/12/06 11:20:05;;;;;;;37.67;23.90;;;1.80;99.90;;;;;;5029156;28;20852;-65
2023/12/06 11:22:32;;;;;;;39.87;26.37;;;1.80;99.90;;;;;;5029744;28;20205;-65
2023/12/06 11:25:00;;;;;;;33.93;21.60;;;1.80;99.90;;;;;;5029723;28;20300;-65
2023/12/06 11:27:27;;;;;;;36.30;23.37;;;1.80;99.90;;;;;;5029498;28;20201;-65
2023/12/06 11:29:54;;;;;;;34.53;21.63;;;1.80;99.90;;;;;;5025558;28;20305;-65
2023/12/06 11:32:21;;;;;;;36.73;21.57;;;1.80;99.90;;;;;;5009869;28;20304;-65
2023/12/06 11:34:56;;;;;;;35.47;21.93;;;1.80;99.90;;;;;;5009877;28;20209;-65
2023/12/06 11:37:24;;;;;;;31.90;22.37;;;1.80;99.90;;;;;;5009841;28;20237;-65
2023/12/06 11:40:24;;;;;;;35.53;22.13;;;1.80;99.90;;;;;;5009670;28;20264;-65
2023/12/06 11:42:56;;;;;;;36.27;21.40;;;1.80;99.90;;;;;;5009266;28;20309;-65
2023/12/06 11:45:25;;;;;;;33.10;21.10;;;1.80;99.90;;;;;;5009671;28;20216;-65
2023/12/06 11:47:53;;;;;;;32.53;20.30;;;1.80;99.90;;;;;;5009173;28;20226;-65
2023/12/06 11:50:20;;;;;;;31.10;21.13;;;1.80;99.90;;;;;;5009579;28;20206;-64
2023/12/06 11:52:50;;;;;;;34.00;21.77;;;1.80;99.90;;;;;;5009254;28;20328;-65
2023/12/06 11:55:18;;;;;;;31.37;19.93;;;1.90;99.90;;;;;;5018569;28;20209;-64
2023/12/06 11:58:02;;;;;;;34.47;21.93;;;1.90;99.90;;;;;;5028875;28;20288;-64
2023/12/06 12:00:30;;;;;;;33.23;21.30;;;1.90;99.90;;;;;;5028882;28;20300;-65
2023/12/06 12:02:58;;;;;;;33.70;21.17;;;1.90;99.90;;;;;;5028590;28;20237;-65
2023/12/06 12:05:26;;;;;;;33.20;21.60;;;1.90;99.90;;;;;;5028917;28;20304;-64
2023/12/06 12:07:54;;;;;;;32.97;21.50;;;1.80;99.90;;;;;;5028625;28;20794;-65
2023/12/06 12:10:21;;;;;;;35.83;21.33;;;1.90;99.90;;;;;;5028988;28;20299;-65
2023/12/06 12:12:49;;;;;;;32.33;21.43;;;1.90;99.90;;;;;;5028813;28;20714;-65
2023/12/06 12:15:17;;;;;;;36.90;21.30;;;1.90;99.90;;;;;;5028480;28;20214;-65
2023/12/06 12:17:45;;;;;;;32.03;20.97;;;1.90;99.90;;;;;;5028566;28;20664;-65
2023/12/06 12:20:13;;;;;;;32.37;20.77;;;1.90;99.90;;;;;;5028396;28;20204;-65
2023/12/06 12:22:47;;;;;;;32.17;21.47;;;1.90;99.90;;;;;;5028533;28;20212;-65
2023/12/06 12:25:16;;;;;;;34.20;22.37;;;1.80;99.90;;;;;;5028348;28;20247;-65
2023/12/06 12:27:44;;;;;;;36.37;21.57;;;1.80;99.90;;;;;;5026862;28;20323;-64
2023/12/06 12:30:13;;;;;;;34.23;20.97;;;1.90;99.90;;;;;;5028389;28;20303;-65
2023/12/06 12:32:42;;;;;;;34.03;20.77;;;1.90;99.90;;;;;;5028573;28;20414;-65
2023/12/06 12:35:10;;;;;;;32.13;20.73;;;1.90;99.90;;;;;;5027984;28;20263;-65
2023/12/06 12:37:37;;;;;;;29.87;20.23;;;1.90;99.90;;;;;;5028225;28;20205;-65
2023/12/06 12:40:06;;;;;;;33.13;21.13;;;1.90;99.90;;;;;;5028187;28;20307;-65